Time;durP1;ratioP1;P1;durP2;ratioP2;P2;SDS_P1;SDS_P2;PMS_P1;PMS_P2;Temp;Humidity;BMP_temperature;BMP_pressure;BME280_temperature;BME280_humidity;BME280_pressure;Samples;Min_cycle;Max_cycle;Signal;HPM_P1;HPM_P2
2022/05/02 00:00:42;;;;;;;;;15.33;15.00;16.90;47.00;;;;;;4701442;30;8864;-59
2022/05/02 00:03:08;;;;;;;;;15.00;11.33;17.10;46.70;;;;;;4701444;30;9492;-59
2022/05/02 00:05:34;;;;;;;;;19.67;18.00;17.60;45.40;;;;;;4701193;30;8902;-59
2022/05/02 00:08:00;;;;;;;;;18.67;16.67;17.80;45.10;;;;;;4701333;30;8822;-59
2022/05/02 00:10:26;;;;;;;;;13.00;13.00;17.80;45.30;;;;;;4701307;30;8813;-60
2022/05/02 00:12:51;;;;;;;;;15.00;15.00;17.40;45.90;;;;;;4701022;30;8821;-59
2022/05/02 00:15:17;;;;;;;;;18.00;13.67;17.60;45.70;;;;;;4701097;30;8911;-59
2022/05/02 00:17:58;;;;;;;;;8.33;8.33;18.00;44.70;;;;;;4701170;30;8841;-59
2022/05/02 00:20:35;;;;;;;;;12.33;12.33;18.10;44.70;;;;;;4701011;30;8837;-60
2022/05/02 00:23:06;;;;;;;;;11.33;11.33;18.10;44.60;;;;;;4701211;30;8844;-60
2022/05/02 00:25:32;;;;;;;;;11.00;11.00;18.00;44.80;;;;;;4701218;30;9702;-60
2022/05/02 00:27:59;;;;;;;;;13.00;11.33;18.30;44.50;;;;;;4701110;30;8805;-59
2022/05/02 00:30:25;;;;;;;;;8.67;8.67;18.10;44.30;;;;;;4700956;30;8813;-60
2022/05/02 00:32:52;;;;;;;;;11.67;11.67;18.30;43.70;;;;;;4700963;30;8913;-60
2022/05/02 00:35:17;;;;;;;;;10.33;10.33;18.20;44.20;;;;;;4700878;30;8829;-60
2022/05/02 00:37:44;;;;;;;;;8.00;8.00;18.10;44.10;;;;;;4704743;30;8885;-60
2022/05/02 00:40:12;;;;;;;;;13.00;12.00;17.90;44.20;;;;;;4704415;30;8821;-59
2022/05/02 00:42:38;;;;;;;;;11.33;10.00;17.50;45.40;;;;;;4704307;30;8845;-59
2022/05/02 00:45:09;;;;;;;;;11.67;11.67;17.50;45.90;;;;;;4704228;30;8833;-59
2022/05/02 00:47:36;;;;;;;;;8.67;8.67;17.90;45.70;;;;;;4704303;30;8821;-59
2022/05/02 00:50:07;;;;;;;;;8.33;8.33;18.10;44.50;;;;;;4704489;30;8830;-59
2022/05/02 00:52:33;;;;;;;;;11.00;11.00;17.90;45.20;;;;;;4704222;30;8797;-61
2022/05/02 00:55:04;;;;;;;;;12.00;11.00;18.10;45.00;;;;;;4703971;30;8817;-59
2022/05/02 00:57:30;;;;;;;;;9.00;8.33;18.00;44.40;;;;;;4704283;30;8876;-59
2022/05/02 00:59:55;;;;;;;;;13.33;13.00;17.70;44.70;;;;;;4704116;30;8898;-58
2022/05/02 01:02:21;;;;;;;;;11.00;11.00;17.80;44.50;;;;;;4704271;30;8924;-58
2022/05/02 01:04:47;;;;;;;;;12.67;10.33;18.20;44.20;;;;;;4704006;30;9519;-61
2022/05/02 01:07:18;;;;;;;;;10.33;10.33;18.30;43.90;;;;;;4704235;30;8849;-59
2022/05/02 01:09:47;;;;;;;;;10.33;9.00;18.20;43.70;;;;;;4704217;30;8857;-59
2022/05/02 01:12:15;;;;;;;;;9.33;8.33;18.60;43.10;;;;;;4703918;30;8822;-59
2022/05/02 01:14:42;;;;;;;;;9.67;9.67;18.30;42.40;;;;;;4704104;30;8860;-59
2022/05/02 01:17:09;;;;;;;;;12.33;12.33;17.80;44.60;;;;;;4703774;30;8841;-59
2022/05/02 01:19:35;;;;;;;;;11.00;11.00;17.70;44.40;;;;;;4703797;30;8848;-62
2022/05/02 01:22:02;;;;;;;;;14.00;12.00;17.00;46.20;;;;;;4703953;30;8818;-62
2022/05/02 01:24:42;;;;;;;;;17.00;15.67;16.60;47.60;;;;;;4703666;30;8906;-59
2022/05/02 01:27:10;;;;;;;;;18.00;14.33;16.60;48.10;;;;;;4703789;30;8813;-60
2022/05/02 01:29:38;;;;;;;;;17.67;17.33;16.50;48.40;;;;;;4703886;30;8806;-60
2022/05/02 01:32:06;;;;;;;;;17.67;15.00;16.40;47.90;;;;;;4703724;30;8920;-60
2022/05/02 01:34:36;;;;;;;;;16.00;12.67;16.40;47.80;;;;;;4703736;30;8827;-60
2022/05/02 01:37:03;;;;;;;;;19.00;18.00;16.40;47.30;;;;;;4703742;30;8885;-61
2022/05/02 01:39:29;;;;;;;;;14.00;12.33;16.40;47.50;;;;;;4703718;30;8814;-61
2022/05/02 01:41:59;;;;;;;;;15.67;15.67;16.40;47.20;;;;;;4703642;30;8818;-59
2022/05/02 01:44:24;;;;;;;;;11.33;11.33;16.50;47.90;;;;;;4703413;30;8840;-60
2022/05/02 01:46:51;;;;;;;;;13.67;12.00;16.30;47.00;;;;;;4703508;30;8830;-60
2022/05/02 01:49:17;;;;;;;;;19.00;18.33;16.30;46.80;;;;;;4702861;30;8941;-62
2022/05/02 01:51:43;;;;;;;;;19.67;19.67;16.40;46.50;;;;;;4703448;30;8920;-59
2022/05/02 01:54:09;;;;;;;;;33.00;31.00;16.30;46.80;;;;;;4703216;30;8860;-59
2022/05/02 01:56:35;;;;;;;;;22.33;22.33;16.40;46.70;;;;;;4702999;30;8882;-59
2022/05/02 01:59:01;;;;;;;;;17.67;17.67;16.30;46.60;;;;;;4703168;30;9480;-61
2022/05/02 02:01:27;;;;;;;;;22.33;20.67;16.20;47.00;;;;;;4703362;30;8859;-60
2022/05/02 02:03:53;;;;;;;;;22.33;19.67;16.20;47.00;;;;;;4703077;30;8920;-62
2022/05/02 02:06:21;;;;;;;;;18.33;18.33;16.20;46.90;;;;;;4703021;30;8868;-60
2022/05/02 02:08:48;;;;;;;;;19.00;17.33;16.20;46.90;;;;;;4702949;30;9701;-61
2022/05/02 02:11:14;;;;;;;;;23.67;22.67;16.30;46.80;;;;;;4702893;30;8914;-62
2022/05/02 02:13:40;;;;;;;;;16.67;14.67;16.20;47.10;;;;;;4703122;30;8932;-61
2022/05/02 02:16:10;;;;;;;;;24.67;23.00;16.10;47.30;;;;;;4702675;30;9624;-61
2022/05/02 02:18:41;;;;;;;;;24.67;23.00;16.10;47.40;;;;;;4703056;30;8947;-62
2022/05/02 02:21:09;;;;;;;;;21.33;18.67;16.00;47.70;;;;;;4703060;30;8829;-62
2022/05/02 02:23:36;;;;;;;;;30.00;29.00;16.10;47.60;;;;;;4702756;30;8822;-61
2022/05/02 02:26:04;;;;;;;;;24.33;23.67;16.10;47.80;;;;;;4703010;30;8912;-61
2022/05/02 02:28:30;;;;;;;;;28.67;25.33;15.90;48.30;;;;;;4702927;30;8813;-62
2022/05/02 02:30:55;;;;;;;;;28.67;26.33;15.90;48.40;;;;;;4702628;30;8833;-61
2022/05/02 02:33:21;;;;;;;;;36.00;32.33;15.80;48.70;;;;;;4702569;30;8818;-61
2022/05/02 02:35:47;;;;;;;;;32.67;30.67;16.00;48.40;;;;;;4702647;30;8865;-61
2022/05/02 02:38:13;;;;;;;;;34.00;30.33;16.00;48.40;;;;;;4702418;30;8845;-62
2022/05/02 02:40:40;;;;;;;;;34.00;33.67;15.80;49.30;;;;;;4702439;30;8832;-62
2022/05/02 02:43:07;;;;;;;;;27.00;24.00;15.70;49.50;;;;;;4702442;30;9639;-61
2022/05/02 02:45:32;;;;;;;;;18.00;17.00;15.70;49.30;;;;;;4701305;30;8934;-62
2022/05/02 02:47:58;;;;;;;;;18.67;16.67;15.70;49.30;;;;;;4715745;30;8845;-61
2022/05/02 02:50:24;;;;;;;;;23.33;21.67;15.60;49.70;;;;;;4702195;30;8829;-62
2022/05/02 02:52:50;;;;;;;;;22.33;20.67;15.60;49.80;;;;;;4702412;30;8841;-62
2022/05/02 02:55:16;;;;;;;;;25.00;22.67;15.50;50.20;;;;;;4702223;30;8817;-61
2022/05/02 02:57:42;;;;;;;;;17.33;17.00;15.50;50.40;;;;;;4702064;30;8870;-61
2022/05/02 03:00:08;;;;;;;;;17.67;15.00;15.50;50.70;;;;;;4701213;30;8821;-61
2022/05/02 03:02:39;;;;;;;;;14.67;13.67;15.50;50.80;;;;;;4702265;30;8809;-61
2022/05/02 03:07:50;;;;;;;;;6.00;5.33;15.60;50.40;;;;;;4702068;30;8801;-60
2022/05/02 03:10:15;;;;;;;;;9.33;9.33;15.60;50.20;;;;;;4701398;30;8942;-61
2022/05/02 03:12:41;;;;;;;;;10.67;9.67;15.70;50.50;;;;;;4701858;30;8825;-60
2022/05/02 03:15:07;;;;;;;;;14.00;12.33;15.60;50.60;;;;;;4701981;30;8864;-61
2022/05/02 03:17:33;;;;;;;;;13.33;11.33;15.90;50.20;;;;;;4701895;30;8889;-60
2022/05/02 03:19:59;;;;;;;;;10.00;10.00;15.80;50.20;;;;;;4701987;30;8839;-60
2022/05/02 03:22:25;;;;;;;;;10.00;10.00;15.70;50.90;;;;;;4697125;30;8829;-61
2022/05/02 03:24:50;;;;;;;;;12.33;12.33;15.70;51.00;;;;;;4701763;30;8850;-61
2022/05/02 03:27:16;;;;;;;;;13.00;13.00;15.80;50.90;;;;;;4701905;30;8879;-61
2022/05/02 03:29:42;;;;;;;;;12.00;12.00;15.90;50.60;;;;;;4701186;30;9539;-61
2022/05/02 03:32:08;;;;;;;;;16.67;15.00;15.70;50.40;;;;;;4701569;30;8857;-61
2022/05/02 03:34:33;;;;;;;;;11.33;11.33;15.70;50.60;;;;;;4701548;30;8825;-60
2022/05/02 03:36:59;;;;;;;;;16.00;13.67;15.60;50.40;;;;;;4701761;30;8876;-61
2022/05/02 03:39:25;;;;;;;;;17.00;16.67;15.80;50.10;;;;;;4701061;30;8857;-61
2022/05/02 03:41:50;;;;;;;;;19.67;18.33;16.00;49.60;;;;;;4701412;30;8857;-60
2022/05/02 03:44:16;;;;;;;;;20.00;18.67;15.90;49.90;;;;;;4701848;30;8879;-60
2022/05/02 03:46:42;;;;;;;;;21.33;21.33;16.00;50.10;;;;;;4701276;30;8863;-61
2022/05/02 03:49:07;;;;;;;;;21.00;19.33;16.00;50.30;;;;;;4701357;30;8810;-61
2022/05/02 03:51:33;;;;;;;;;17.67;17.33;16.10;49.80;;;;;;4701340;30;8809;-60
2022/05/02 03:53:59;;;;;;;;;16.33;16.33;15.90;50.40;;;;;;4701365;30;9484;-60
2022/05/02 03:56:25;;;;;;;;;14.33;14.33;16.00;50.00;;;;;;4700957;30;8853;-61
2022/05/02 03:58:52;;;;;;;;;21.00;20.00;15.80;50.50;;;;;;4701219;30;8806;-61
2022/05/02 04:01:18;;;;;;;;;18.00;18.00;15.70;51.00;;;;;;4701474;30;8825;-61
2022/05/02 04:03:44;;;;;;;;;22.00;20.67;15.70;51.20;;;;;;4701513;30;9515;-61
2022/05/02 04:06:09;;;;;;;;;21.00;21.00;15.50;51.80;;;;;;4701401;30;8821;-61
2022/05/02 04:08:35;;;;;;;;;21.00;21.00;15.60;51.90;;;;;;4701384;30;8854;-60
2022/05/02 04:11:01;;;;;;;;;21.33;21.00;15.50;52.00;;;;;;4700898;30;8810;-60
2022/05/02 04:13:26;;;;;;;;;20.33;20.33;15.50;52.30;;;;;;4701039;30;8829;-61
2022/05/02 04:15:52;;;;;;;;;15.67;15.67;15.50;52.80;;;;;;4701129;30;8848;-61
2022/05/02 04:18:18;;;;;;;;;14.33;14.00;15.40;52.80;;;;;;4701226;30;8902;-62
2022/05/02 04:20:43;;;;;;;;;14.67;10.67;15.50;52.70;;;;;;4700992;30;8825;-61
2022/05/02 04:23:09;;;;;;;;;16.67;15.33;15.50;52.50;;;;;;4700976;30;8910;-62
2022/05/02 04:25:35;;;;;;;;;19.00;17.00;15.40;53.10;;;;;;4701195;30;8813;-61
2022/05/02 04:28:01;;;;;;;;;21.33;20.00;15.40;53.00;;;;;;4701135;30;8845;-61
2022/05/02 04:30:28;;;;;;;;;27.67;27.67;15.50;53.00;;;;;;4701183;30;8825;-61
2022/05/02 04:32:53;;;;;;;;;27.33;26.33;15.40;53.20;;;;;;4700905;30;8833;-61
2022/05/02 04:35:19;;;;;;;;;27.00;26.67;15.50;53.00;;;;;;4701162;30;8829;-61
2022/05/02 04:37:45;;;;;;;;;21.33;21.33;15.50;53.20;;;;;;4700779;30;8972;-61
2022/05/02 04:40:11;;;;;;;;;19.33;19.00;15.30;53.80;;;;;;4700477;30;8848;-61
2022/05/02 04:42:40;;;;;;;;;12.67;11.00;15.30;54.20;;;;;;4700840;30;8944;-61
2022/05/02 04:45:06;;;;;;;;;18.00;17.67;15.30;54.30;;;;;;4700973;30;9474;-61
2022/05/02 04:47:32;;;;;;;;;18.33;18.33;15.30;53.90;;;;;;4700986;30;8976;-61
2022/05/02 04:49:57;;;;;;;;;18.33;17.00;15.40;54.20;;;;;;4700717;30;8948;-62
2022/05/02 04:52:23;;;;;;;;;22.67;22.67;15.40;54.10;;;;;;4699713;30;8822;-62
2022/05/02 04:54:49;;;;;;;;;22.00;22.00;15.30;54.30;;;;;;4700704;30;9453;-62
2022/05/02 04:57:15;;;;;;;;;22.67;22.67;15.30;54.40;;;;;;4700493;30;8996;-62
2022/05/02 04:59:40;;;;;;;;;16.33;16.00;15.30;54.70;;;;;;4700741;30;8820;-62
2022/05/02 05:02:06;;;;;;;;;19.33;17.00;15.60;54.00;;;;;;4700890;30;8838;-62
2022/05/02 05:04:32;;;;;;;;;17.33;17.33;15.60;54.20;;;;;;4700732;30;8960;-62
2022/05/02 05:06:58;;;;;;;;;23.67;23.67;15.50;54.40;;;;;;4700822;30;8852;-62
2022/05/02 05:09:23;;;;;;;;;20.00;20.00;15.60;54.10;;;;;;4700815;30;9469;-61
2022/05/02 05:12:14;;;;;;;;;25.00;23.00;15.70;54.50;;;;;;4700547;30;8839;-62
2022/05/02 05:18:12;;;;;;;;;26.67;26.67;15.80;54.40;;;;;;4699860;30;8869;-62
2022/05/02 05:21:02;;;;;;;;;21.00;21.00;15.90;54.40;;;;;;4700617;30;8813;-62
2022/05/02 05:23:49;;;;;;;;;31.33;30.33;15.90;54.30;;;;;;4702215;30;8829;-61
2022/05/02 05:26:46;;;;;;;;;30.33;28.33;16.00;53.80;;;;;;4703965;30;9583;-62
2022/05/02 05:29:23;;;;;;;;;27.67;27.00;16.20;53.60;;;;;;4703995;30;8802;-63
2022/05/02 05:32:07;;;;;;;;;28.00;27.00;16.20;53.70;;;;;;4703833;30;8884;-62
2022/05/02 05:35:07;;;;;;;;;28.67;28.67;16.40;53.20;;;;;;4703653;30;8806;-62
2022/05/02 05:37:40;;;;;;;;;26.33;24.00;16.30;53.40;;;;;;4686979;30;8883;-62
2022/05/02 05:40:39;;;;;;;;;26.00;25.33;16.40;53.30;;;;;;4701663;30;8814;-62
2022/05/02 05:43:41;;;;;;;;;31.33;29.00;16.50;53.40;;;;;;4633109;30;8861;-62
2022/05/02 05:46:43;;;;;;;;;25.00;25.00;16.30;53.90;;;;;;4633104;30;8811;-62
2022/05/02 05:49:18;;;;;;;;;22.33;22.33;16.50;53.50;;;;;;4633269;30;9458;-62
2022/05/02 05:51:54;;;;;;;;;22.00;21.00;16.60;53.50;;;;;;4633026;30;8810;-62
2022/05/02 05:54:48;;;;;;;;;24.33;23.00;16.70;53.00;;;;;;4633000;30;8837;-62
2022/05/02 05:57:38;;;;;;;;;15.00;13.33;16.80;52.80;;;;;;4632778;30;8858;-62
2022/05/02 06:00:12;;;;;;;;;13.67;13.67;16.90;51.40;;;;;;4632900;30;8811;-62
2022/05/02 06:02:58;;;;;;;;;19.67;18.33;16.60;52.30;;;;;;4632892;30;8937;-62
2022/05/02 06:05:24;;;;;;;;;14.67;14.67;16.90;51.20;;;;;;4632948;30;9591;-62
2022/05/02 06:07:51;;;;;;;;;17.67;16.33;16.90;52.60;;;;;;4632829;30;8930;-62
2022/05/02 06:10:18;;;;;;;;;14.67;14.67;16.90;52.10;;;;;;4632814;30;8899;-62
2022/05/02 06:12:45;;;;;;;;;14.33;14.00;16.90;52.10;;;;;;4638175;30;8842;-62
2022/05/02 06:20:44;;;;;;;;;14.33;14.33;17.40;50.40;;;;;;4689486;30;8817;-62
2022/05/02 06:23:13;;;;;;;;;16.33;15.33;17.30;51.30;;;;;;4702073;30;8994;-62
2022/05/02 06:25:40;;;;;;;;;14.00;13.67;17.70;50.50;;;;;;4703000;30;9706;-63
2022/05/02 06:28:07;;;;;;;;;15.00;14.33;17.40;51.40;;;;;;4702654;30;8919;-62
2022/05/02 06:30:36;;;;;;;;;15.00;14.67;17.40;51.70;;;;;;4702673;30;8921;-62
2022/05/02 06:33:11;;;;;;;;;18.33;18.33;17.30;51.70;;;;;;4702885;30;8833;-63
2022/05/02 06:35:57;;;;;;;;;16.33;16.33;17.50;50.90;;;;;;4702761;30;8837;-62
2022/05/02 06:38:55;;;;;;;;;17.33;17.00;17.40;51.40;;;;;;4702749;30;8918;-63
2022/05/02 06:41:35;;;;;;;;;24.67;24.67;17.30;51.50;;;;;;4669836;30;8814;-61
2022/05/02 06:44:38;;;;;;;;;47.75;41.25;17.50;51.10;;;;;;4698032;30;8931;-62
2022/05/02 06:47:33;;;;;;;;;19.67;19.67;17.30;52.60;;;;;;4685313;30;8844;-63
2022/05/02 06:50:02;;;;;;;;;13.00;12.67;17.80;51.70;;;;;;4706070;30;8837;-62
2022/05/02 06:52:38;;;;;;;;;16.00;14.67;17.80;52.10;;;;;;4702603;30;8821;-62
2022/05/02 06:55:26;;;;;;;;;12.00;11.33;17.80;52.30;;;;;;4701993;30;8801;-62
2022/05/02 06:57:59;;;;;;;;;16.00;16.00;17.90;51.00;;;;;;4702153;30;8876;-64
2022/05/02 07:00:28;;;;;;;;;14.33;14.33;18.10;50.70;;;;;;4702555;30;8802;-66
2022/05/02 07:03:14;;;;;;;;;15.67;14.67;18.30;50.20;;;;;;4701539;30;8813;-66
2022/05/02 07:06:09;;;;;;;;;15.33;15.33;18.30;49.90;;;;;;4702327;30;8918;-66
2022/05/02 07:08:47;;;;;;;;;13.33;12.67;18.70;50.80;;;;;;4702180;30;8958;-67
2022/05/02 07:11:20;;;;;;;;;14.33;14.33;19.20;50.10;;;;;;4701830;30;8821;-66
2022/05/02 07:14:07;;;;;;;;;12.33;12.33;18.80;47.90;;;;;;4700659;30;8821;-65
2022/05/02 07:16:42;;;;;;;;;13.00;13.00;18.90;46.70;;;;;;4695094;30;8825;-66
2022/05/02 07:19:51;;;;;;;;;10.33;10.00;18.90;46.20;;;;;;4701888;30;8931;-63
2022/05/02 07:22:37;;;;;;;;;13.67;12.67;18.70;45.70;;;;;;4699533;30;8835;-64
2022/05/02 07:25:09;;;;;;;;;10.67;10.67;18.70;45.50;;;;;;4687221;30;8833;-68
2022/05/02 07:27:56;;;;;;;;;10.33;10.00;18.70;46.20;;;;;;4682499;30;8922;-65
2022/05/02 07:30:23;;;;;;;;;13.33;13.33;18.40;46.00;;;;;;4682490;30;8841;-65
2022/05/02 07:32:53;;;;;;;;;10.33;9.00;18.50;47.00;;;;;;4681911;30;9425;-66
2022/05/02 07:35:27;;;;;;;;;12.00;12.00;18.50;46.20;;;;;;4685655;30;8901;-65
2022/05/02 07:37:54;;;;;;;;;11.00;9.00;18.60;46.60;;;;;;4685452;30;8872;-65
2022/05/02 07:40:21;;;;;;;;;12.33;10.00;18.70;46.90;;;;;;4692868;30;8830;-66
2022/05/02 07:42:47;;;;;;;;;9.00;9.00;19.00;45.90;;;;;;4681945;30;8972;-64
2022/05/02 07:45:17;;;;;;;;;8.00;8.00;19.10;45.30;;;;;;4671566;30;8855;-62
2022/05/02 07:47:45;;;;;;;;;10.67;10.33;19.40;46.00;;;;;;4686313;30;9001;-62
2022/05/02 07:50:12;;;;;;;;;13.00;13.00;20.30;44.60;;;;;;4689613;30;9731;-66
2022/05/02 07:52:41;;;;;;;;;10.33;9.67;20.40;44.90;;;;;;4682054;30;8952;-66
2022/05/02 07:55:11;;;;;;;;;10.67;10.67;19.90;44.80;;;;;;4681800;30;9366;-66
2022/05/02 07:57:41;;;;;;;;;11.00;11.00;20.10;44.30;;;;;;4683100;30;8886;-66
2022/05/02 08:00:08;;;;;;;;;9.00;9.00;19.90;43.70;;;;;;4698099;30;11722;-63
2022/05/02 08:02:35;;;;;;;;;9.00;8.33;19.80;43.00;;;;;;4700660;30;11764;-65
2022/05/02 08:05:03;;;;;;;;;7.00;7.00;19.70;44.60;;;;;;4700890;30;9485;-66
2022/05/02 08:07:38;;;;;;;;;10.33;10.00;19.80;44.50;;;;;;4701301;30;8933;-64
2022/05/02 08:10:37;;;;;;;;;12.00;12.00;19.90;43.90;;;;;;4701320;30;11734;-66
2022/05/02 08:13:20;;;;;;;;;9.00;9.00;20.10;45.20;;;;;;4693636;30;11741;-66
2022/05/02 08:16:02;;;;;;;;;5.33;5.33;20.20;44.50;;;;;;4698202;30;11694;-65
2022/05/02 08:18:53;;;;;;;;;13.33;12.00;20.00;43.30;;;;;;4697631;30;9649;-63
2022/05/02 08:21:26;;;;;;;;;9.67;9.67;20.10;44.80;;;;;;4699633;30;12510;-64
2022/05/02 08:27:19;;;;;;;;;9.33;8.00;20.20;43.10;;;;;;4699617;30;11697;-68
2022/05/02 08:30:01;;;;;;;;;9.00;8.00;20.20;44.00;;;;;;4698315;30;12453;-66
2022/05/02 08:32:48;;;;;;;;;12.00;11.67;20.10;43.00;;;;;;4700627;30;11724;-65
2022/05/02 08:35:52;;;;;;;;;12.33;9.67;20.10;42.30;;;;;;4697433;30;11823;-65
2022/05/02 08:38:36;;;;;;;;;9.00;9.00;20.00;42.70;;;;;;4697059;30;12062;-63
2022/05/02 08:41:28;;;;;;;;;10.00;9.00;20.10;42.40;;;;;;4696986;30;11722;-65
2022/05/02 08:44:06;;;;;;;;;9.00;9.00;20.00;41.80;;;;;;4696279;30;12410;-63
2022/05/02 08:46:59;;;;;;;;;9.00;9.00;19.90;42.10;;;;;;4697260;30;11968;-63
2022/05/02 08:49:51;;;;;;;;;10.33;10.33;19.90;42.80;;;;;;4697436;30;11735;-68
2022/05/02 08:52:25;;;;;;;;;13.00;12.00;20.10;43.00;;;;;;4613694;31;8832;-66
2022/05/02 08:55:15;;;;;;;;;12.67;10.00;20.30;42.40;;;;;;4613709;31;8847;-71
2022/05/02 08:58:12;;;;;;;;;10.33;10.33;20.30;42.90;;;;;;4613165;31;11891;-74
2022/05/02 09:00:57;;;;;;;;;9.33;9.33;20.50;42.10;;;;;;4611793;31;11886;-77
2022/05/02 09:03:56;;;;;;;;;12.33;9.33;20.50;42.50;;;;;;4615564;31;11814;-74
2022/05/02 09:06:52;;;;;;;;;13.33;11.00;20.50;42.10;;;;;;4616840;31;8898;-74
2022/05/02 09:09:57;;;;;;;;;8.67;8.67;20.60;42.60;;;;;;4616365;31;11867;-67
2022/05/02 09:12:31;;;;;;;;;8.00;8.00;20.70;42.60;;;;;;4615889;31;11794;-65
2022/05/02 09:15:12;;;;;;;;;8.00;8.00;20.80;42.20;;;;;;4627257;30;11907;-68
2022/05/02 09:17:56;;;;;;;;;8.67;8.67;21.30;42.70;;;;;;4633212;30;11904;-64
2022/05/02 09:20:24;;;;;;;;;10.00;10.00;21.30;42.60;;;;;;4632564;30;11764;-62
2022/05/02 09:23:16;;;;;;;;;8.00;8.00;21.20;40.70;;;;;;4631755;30;11778;-62
2022/05/02 09:26:03;;;;;;;;;9.00;8.33;21.40;41.50;;;;;;4622345;30;11778;-63
2022/05/02 09:28:47;;;;;;;;;14.33;14.33;21.30;40.80;;;;;;4644682;30;11730;-64
2022/05/02 09:31:22;;;;;;;;;11.00;11.00;21.40;40.30;;;;;;4703764;30;8854;-67
2022/05/02 09:33:59;;;;;;;;;11.00;11.00;21.30;41.20;;;;;;4702762;30;11775;-64
2022/05/02 09:36:30;;;;;;;;;10.00;10.00;21.50;41.30;;;;;;4703091;30;11737;-65
2022/05/02 09:38:59;;;;;;;;;11.75;10.50;21.90;41.30;;;;;;4702670;30;11735;-64
2022/05/02 09:42:00;;;;;;;;;10.00;9.00;22.20;40.80;;;;;;4702738;30;12353;-63
2022/05/02 09:50:34;;;;;;;;;8.00;8.00;22.30;39.60;;;;;;4701725;30;11841;-62
2022/05/02 09:53:24;;;;;;;;;10.75;10.75;22.40;39.20;;;;;;4700593;30;11678;-63
2022/05/02 09:58:56;;;;;;;;;13.50;11.75;22.10;37.70;;;;;;4697429;30;11717;-65
2022/05/02 10:01:26;;;;;;;;;10.50;10.00;22.00;39.60;;;;;;4703072;30;11730;-65
2022/05/02 10:04:18;;;;;;;;;11.25;10.50;22.40;39.50;;;;;;4702415;30;11811;-64
2022/05/02 10:07:09;;;;;;;;;12.00;9.00;22.60;39.90;;;;;;4701611;30;11774;-64
2022/05/02 10:10:01;;;;;;;;;10.00;10.00;22.80;38.00;;;;;;4701239;30;11682;-65
2022/05/02 10:12:48;;;;;;;;;12.00;10.00;23.00;38.20;;;;;;4701178;30;11754;-65
2022/05/02 10:15:33;;;;;;;;;11.00;11.00;22.90;37.40;;;;;;4700746;30;11782;-65
2022/05/02 10:18:15;;;;;;;;;9.50;9.50;22.60;36.60;;;;;;4702944;30;11793;-65
2022/05/02 10:21:07;;;;;;;;;8.75;8.75;22.80;37.80;;;;;;4702964;30;12401;-65
2022/05/02 10:23:46;;;;;;;;;10.75;10.75;22.80;36.50;;;;;;4698162;30;11834;-65
2022/05/02 10:26:47;;;;;;;;;11.00;10.00;22.90;38.50;;;;;;4702830;30;12382;-66
2022/05/02 10:29:25;;;;;;;;;10.00;10.00;23.10;35.10;;;;;;4700645;30;11620;-65
2022/05/02 10:32:03;;;;;;;;;7.25;7.25;23.20;35.30;;;;;;4702059;30;11694;-69
2022/05/02 10:34:32;;;;;;;;;11.00;11.00;23.10;34.60;;;;;;4702255;30;11736;-69
2022/05/02 10:37:04;;;;;;;;;8.00;8.00;23.10;34.70;;;;;;4690404;30;11784;-68
2022/05/02 10:39:47;;;;;;;;;11.25;10.75;23.20;34.50;;;;;;4701234;30;11703;-68
2022/05/02 10:42:17;;;;;;;;;8.75;8.75;23.00;33.80;;;;;;4702164;30;11712;-68
2022/05/02 10:44:57;;;;;;;;;9.50;8.00;22.70;33.40;;;;;;4702370;30;11667;-71
2022/05/02 10:47:27;;;;;;;;;9.00;9.00;22.80;33.50;;;;;;4702258;30;11909;-68
2022/05/02 10:50:23;;;;;;;;;9.25;8.50;22.80;33.80;;;;;;4702402;30;11694;-74
2022/05/02 10:53:11;;;;;;;;;8.25;7.25;22.80;34.70;;;;;;4702330;30;11718;-72
2022/05/02 10:55:47;;;;;;;;;10.25;10.25;23.00;34.40;;;;;;4702128;30;12338;-68
2022/05/02 10:58:14;;;;;;;;;8.75;8.75;23.10;34.50;;;;;;4701837;30;11723;-64
2022/05/02 11:01:07;;;;;;;;;11.00;11.00;23.10;33.70;;;;;;4702209;30;11710;-65
2022/05/02 11:04:10;;;;;;;;;10.00;10.00;23.30;34.60;;;;;;4701631;30;11730;-67
2022/05/02 11:07:08;;;;;;;;;11.75;11.00;23.70;34.00;;;;;;4702072;30;12859;-66
2022/05/02 11:09:55;;;;;;;;;13.75;13.75;23.90;34.80;;;;;;4707237;30;11879;-65
2022/05/02 11:12:31;;;;;;;;;10.50;10.50;23.70;33.80;;;;;;4699784;30;11764;-60
2022/05/02 11:15:25;;;;;;;;;13.33;13.33;23.70;33.60;;;;;;4688180;30;11773;-63
2022/05/02 11:18:00;;;;;;;;;13.00;13.00;23.60;34.00;;;;;;4701331;30;11793;-61
2022/05/02 11:20:49;;;;;;;;;12.00;12.00;23.70;33.60;;;;;;4699821;30;11764;-64
2022/05/02 11:23:33;;;;;;;;;14.67;14.67;23.50;33.70;;;;;;4701162;30;11762;-65
2022/05/02 11:26:05;;;;;;;;;11.00;11.00;23.30;34.60;;;;;;4701775;30;11753;-65
2022/05/02 11:28:36;;;;;;;;;13.00;10.50;23.20;34.90;;;;;;4701109;30;11732;-63
2022/05/02 11:31:24;;;;;;;;;10.75;10.75;23.00;33.70;;;;;;4701528;30;11748;-64
2022/05/02 11:34:13;;;;;;;;;9.50;9.00;23.00;36.30;;;;;;4701201;30;12361;-64
2022/05/02 11:36:46;;;;;;;;;12.75;11.50;22.70;32.30;;;;;;4701185;30;12488;-68
2022/05/02 11:39:20;;;;;;;;;9.00;9.00;22.60;33.60;;;;;;4701337;30;11709;-69
2022/05/02 11:41:50;;;;;;;;;10.75;10.75;22.70;32.50;;;;;;4701394;30;11664;-67
2022/05/02 11:44:18;;;;;;;;;12.50;12.50;23.30;33.20;;;;;;4714412;30;11831;-68
2022/05/02 11:47:25;;;;;;;;;10.25;9.25;23.40;32.90;;;;;;4701162;30;11772;-68
2022/05/02 11:50:05;;;;;;;;;8.50;7.50;23.60;32.70;;;;;;4701258;30;11637;-63
2022/05/02 11:52:37;;;;;;;;;8.00;7.00;23.40;30.40;;;;;;4701025;30;11699;-68
2022/05/02 11:55:06;;;;;;;;;9.50;9.25;23.20;30.40;;;;;;4700832;30;11677;-68
2022/05/02 11:57:55;;;;;;;;;7.00;7.00;23.70;33.20;;;;;;4701132;30;11749;-69
2022/05/02 12:00:28;;;;;;;;;10.25;10.00;23.90;33.80;;;;;;4701412;30;11766;-72
2022/05/02 12:03:14;;;;;;;;;10.00;10.00;23.70;30.90;;;;;;4701070;30;11719;-71
2022/05/02 12:05:42;;;;;;;;;9.25;8.00;23.80;31.90;;;;;;4701007;30;11741;-68
2022/05/02 12:08:21;;;;;;;;;12.00;12.00;23.40;31.40;;;;;;4700761;30;11712;-70
2022/05/02 12:10:47;;;;;;;;;12.67;12.67;23.40;31.50;;;;;;4700903;30;11768;-70
2022/05/02 12:13:15;;;;;;;;;11.00;11.00;23.30;31.50;;;;;;4700887;30;11721;-70
2022/05/02 12:15:57;;;;;;;;;10.25;10.25;23.10;33.20;;;;;;4700881;30;8848;-70
2022/05/02 12:18:37;;;;;;;;;12.75;11.50;22.90;32.10;;;;;;4700968;30;11751;-67
2022/05/02 12:21:05;;;;;;;;;10.75;9.00;23.10;34.40;;;;;;4701058;30;11735;-69
2022/05/02 12:23:34;;;;;;;;;10.25;9.25;23.40;33.20;;;;;;4700771;30;11903;-68
2022/05/02 12:26:03;;;;;;;;;11.25;11.25;23.50;31.60;;;;;;4701034;30;11681;-71
2022/05/02 12:28:37;;;;;;;;;8.75;8.75;23.40;31.90;;;;;;4700967;30;11731;-69
2022/05/02 12:31:07;;;;;;;;;9.00;9.00;23.30;32.50;;;;;;4700895;30;11676;-71
2022/05/02 12:33:39;;;;;;;;;9.00;9.00;23.80;30.90;;;;;;4704212;30;11711;-66
2022/05/02 12:36:19;;;;;;;;;9.25;9.25;23.90;28.80;;;;;;4704389;30;11754;-67
2022/05/02 12:39:05;;;;;;;;;9.75;9.25;24.00;29.50;;;;;;4704305;30;11819;-67
2022/05/02 12:41:43;;;;;;;;;9.67;9.67;24.30;29.10;;;;;;4704521;30;11713;-64
2022/05/02 12:44:11;;;;;;;;;10.33;9.67;24.40;27.60;;;;;;4704564;30;11666;-69
2022/05/02 12:46:40;;;;;;;;;12.67;10.67;24.40;27.10;;;;;;4704362;30;11747;-66
2022/05/02 12:49:11;;;;;;;;;9.00;9.00;24.50;30.00;;;;;;4704174;30;11803;-67
2022/05/02 12:51:37;;;;;;;;;9.67;9.67;24.50;27.80;;;;;;4704286;30;11694;-70
2022/05/02 12:54:15;;;;;;;;;13.67;12.00;24.70;28.60;;;;;;4704097;30;11692;-69
2022/05/02 13:02:52;;;;;;;;;10.00;9.00;24.50;28.40;;;;;;4667565;30;11786;-64
2022/05/02 13:05:31;;;;;;;;;9.67;9.33;24.10;27.70;;;;;;4667644;30;11812;-65
2022/05/02 13:07:57;;;;;;;;;11.00;9.67;23.70;27.70;;;;;;4667498;30;12459;-65
2022/05/02 13:10:26;;;;;;;;;9.75;9.75;23.40;28.60;;;;;;4667440;30;12466;-62
2022/05/02 13:13:07;;;;;;;;;8.50;8.50;23.40;29.70;;;;;;4667394;30;11831;-63
2022/05/02 13:15:42;;;;;;;;;10.00;10.00;23.50;29.40;;;;;;4667434;30;11749;-65
2022/05/02 13:18:22;;;;;;;;;9.75;9.75;23.60;29.70;;;;;;4667122;30;11990;-64
2022/05/02 13:21:02;;;;;;;;;6.75;6.75;23.90;30.00;;;;;;4667269;30;11855;-66
2022/05/02 13:23:53;;;;;;;;;9.50;8.75;24.40;29.80;;;;;;4667261;30;11751;-66
2022/05/02 13:26:33;;;;;;;;;11.00;9.75;24.20;27.50;;;;;;4667299;30;11846;-65
2022/05/02 13:29:23;;;;;;;;;9.00;9.00;23.80;28.20;;;;;;4667152;30;11874;-62
2022/05/02 13:32:02;;;;;;;;;8.00;8.00;23.60;27.60;;;;;;4667197;30;11739;-64
2022/05/02 13:35:03;;;;;;;;;8.75;7.75;23.50;28.30;;;;;;4667119;30;11739;-61
2022/05/02 13:37:35;;;;;;;;;6.50;5.50;23.60;28.40;;;;;;4649752;30;11869;-59
2022/05/02 13:40:04;;;;;;;;;7.00;7.00;23.60;26.70;;;;;;4649986;30;11737;-60
2022/05/02 13:43:20;;;;;;;;;3.75;3.75;23.80;27.10;;;;;;4649885;30;12502;-68
2022/05/02 13:45:49;;;;;;;;;8.25;8.00;23.70;27.90;;;;;;4599648;31;11783;-62